If you wish to contribute or participate in the discussions about articles you are invited to join SKYbrary as a registered user

 Actions

Angoulême-Brie-Champniers Airport

From SKYbrary Wiki

LFBU
Airport
ICAO: LFBU – IATA: ANG
Summary
Name Angoulême-Brie-Champniers Airport
Region Europe
Territory France FR.gif
Location , Poitou-Charentes
Serving Angouleme
Elevation 132.893 m
436 ft
436 ft132.893 m
Type medium airport
Coordinates 45° 43' 45.29" N, 0° 13' 17.24" E
Runways
Designator Length Width Surface ROPS
10/28 1810 m5,938.32 ft
45 m147.638 ft
ASP /


METAR
Observation LFBU 061500Z AUTO 27006KT 9999 -RA FEW041/// BKN062/// OVC086/// ///CB 15/13 Q1008
Station BRIE CHAMPNIERS
Date/Time 06 June 2020 15:00:00
Wind direction 270°
Wind speed 06 kts
Lowest cloud amount few clouds
Temperature 15°C
Dew point 13°C
Humidity 87%
QNH 1008 hPa
Weather condition light rain